sensor_id;sensor_type;location;lat;lon;timestamp;pressure;altitude;pressure_sealevel;temperature;humidity
61119;BME280;51448;51.660;5.824;2023-03-11T00:00:45;100562.16;;;1.04;100.00
61119;BME280;51448;51.660;5.824;2023-03-11T00:03:15;100558.69;;;1.02;100.00
61119;BME280;51448;51.660;5.824;2023-03-11T00:05:45;100562.13;;;0.98;100.00
61119;BME280;51448;51.660;5.824;2023-03-11T00:08:17;100568.16;;;0.97;100.00
61119;BME280;51448;51.660;5.824;2023-03-11T00:10:49;100569.00;;;0.93;100.00
61119;BME280;51448;51.660;5.824;2023-03-11T00:13:19;100561.22;;;0.88;100.00
61119;BME280;51448;51.660;5.824;2023-03-11T00:15:49;100568.06;;;0.85;100.00
61119;BME280;51448;51.660;5.824;2023-03-11T00:18:23;100566.31;;;0.80;100.00
61119;BME280;51448;51.660;5.824;2023-03-11T00:20:54;100573.19;;;0.77;100.00
61119;BME280;51448;51.660;5.824;2023-03-11T00:23:24;100575.78;;;0.74;100.00
61119;BME280;51448;51.660;5.824;2023-03-11T00:25:53;100572.28;;;0.70;100.00
61119;BME280;51448;51.660;5.824;2023-03-11T00:28:21;100580.03;;;0.69;100.00
61119;BME280;51448;51.660;5.824;2023-03-11T00:30:52;100585.19;;;0.67;100.00
61119;BME280;51448;51.660;5.824;2023-03-11T00:33:19;100581.72;;;0.64;100.00
61119;BME280;51448;51.660;5.824;2023-03-11T00:35:48;100583.44;;;0.62;100.00
61119;BME280;51448;51.660;5.824;2023-03-11T00:38:17;100586.84;;;0.57;100.00
61119;BME280;51448;51.660;5.824;2023-03-11T00:40:46;100590.25;;;0.55;100.00
61119;BME280;51448;51.660;5.824;2023-03-11T00:43:15;100590.25;;;0.52;100.00
61119;BME280;51448;51.660;5.824;2023-03-11T00:45:43;100598.84;;;0.49;100.00
61119;BME280;51448;51.660;5.824;2023-03-11T00:48:12;100606.59;;;0.48;100.00
61119;BME280;51448;51.660;5.824;2023-03-11T00:50:41;100603.13;;;0.46;100.00
61119;BME280;51448;51.660;5.824;2023-03-11T00:53:09;100603.06;;;0.43;100.00
61119;BME280;51448;51.660;5.824;2023-03-11T00:55:37;100599.59;;;0.40;100.00
61119;BME280;51448;51.660;5.824;2023-03-11T00:58:09;100607.38;;;0.40;100.00
61119;BME280;51448;51.660;5.824;2023-03-11T01:00:45;100601.31;;;0.37;100.00
61119;BME280;51448;51.660;5.824;2023-03-11T01:03:13;100607.31;;;0.34;100.00
61119;BME280;51448;51.660;5.824;2023-03-11T01:05:40;100610.75;;;0.33;100.00
61119;BME280;51448;51.660;5.824;2023-03-11T01:08:08;100609.00;;;0.29;100.00
61119;BME280;51448;51.660;5.824;2023-03-11T01:10:37;100615.03;;;0.27;100.00
61119;BME280;51448;51.660;5.824;2023-03-11T01:13:04;100611.53;;;0.23;100.00
61119;BME280;51448;51.660;5.824;2023-03-11T01:15:35;100618.41;;;0.24;100.00
61119;BME280;51448;51.660;5.824;2023-03-11T01:18:04;100615.81;;;0.21;100.00
61119;BME280;51448;51.660;5.824;2023-03-11T01:20:34;100627.84;;;0.19;100.00
61119;BME280;51448;51.660;5.824;2023-03-11T01:23:05;100639.94;;;0.18;100.00
61119;BME280;51448;51.660;5.824;2023-03-11T01:25:34;100639.03;;;0.15;100.00
61119;BME280;51448;51.660;5.824;2023-03-11T01:28:02;100642.44;;;0.14;100.00
61119;BME280;51448;51.660;5.824;2023-03-11T01:30:30;100645.03;;;0.12;100.00
61119;BME280;51448;51.660;5.824;2023-03-11T01:32:58;100647.59;;;0.11;100.00
61119;BME280;51448;51.660;5.824;2023-03-11T01:35:28;100651.03;;;0.08;100.00
61119;BME280;51448;51.660;5.824;2023-03-11T01:37:57;100647.53;;;0.08;100.00
61119;BME280;51448;51.660;5.824;2023-03-11T01:42:59;100648.41;;;0.07;100.00
61119;BME280;51448;51.660;5.824;2023-03-11T01:48:21;100650.09;;;0.05;100.00
61119;BME280;51448;51.660;5.824;2023-03-11T01:50:49;100655.34;;;0.09;100.00
61119;BME280;51448;51.660;5.824;2023-03-11T01:53:20;100653.59;;;0.10;100.00
61119;BME280;51448;51.660;5.824;2023-03-11T01:55:49;100657.94;;;0.11;100.00
61119;BME280;51448;51.660;5.824;2023-03-11T01:58:25;100656.25;;;0.13;100.00
61119;BME280;51448;51.660;5.824;2023-03-11T02:00:58;100653.66;;;0.13;100.00
61119;BME280;51448;51.660;5.824;2023-03-11T02:03:37;100656.28;;;0.14;100.00
61119;BME280;51448;51.660;5.824;2023-03-11T02:06:10;100657.13;;;0.15;100.00
61119;BME280;51448;51.660;5.824;2023-03-11T02:08:41;100658.84;;;0.16;100.00
61119;BME280;51448;51.660;5.824;2023-03-11T02:11:16;100658.88;;;0.17;100.00
61119;BME280;51448;51.660;5.824;2023-03-11T02:13:53;100654.56;;;0.16;100.00
61119;BME280;51448;51.660;5.824;2023-03-11T02:16:25;100663.22;;;0.18;100.00
61119;BME280;51448;51.660;5.824;2023-03-11T02:18:53;100658.91;;;0.19;100.00
61119;BME280;51448;51.660;5.824;2023-03-11T02:21:28;100661.50;;;0.19;100.00
61119;BME280;51448;51.660;5.824;2023-03-11T02:24:14;100671.84;;;0.21;100.00
61119;BME280;51448;51.660;5.824;2023-03-11T02:29:25;100670.13;;;0.21;100.00
61119;BME280;51448;51.660;5.824;2023-03-11T02:32:00;100680.47;;;0.21;100.00
61119;BME280;51448;51.660;5.824;2023-03-11T02:34:33;100671.00;;;0.22;100.00
61119;BME280;51448;51.660;5.824;2023-03-11T02:37:11;100673.59;;;0.23;100.00
61119;BME280;51448;51.660;5.824;2023-03-11T02:39:48;100668.44;;;0.23;100.00
61119;BME280;51448;51.660;5.824;2023-03-11T02:42:22;100675.31;;;0.24;100.00
61119;BME280;51448;51.660;5.824;2023-03-11T02:44:58;100676.22;;;0.25;100.00
61119;BME280;51448;51.660;5.824;2023-03-11T02:47:32;100674.47;;;0.24;100.00
61119;BME280;51448;51.660;5.824;2023-03-11T02:50:03;100676.22;;;0.25;100.00
61119;BME280;51448;51.660;5.824;2023-03-11T02:52:33;100671.91;;;0.25;100.00
61119;BME280;51448;51.660;5.824;2023-03-11T02:55:02;100672.78;;;0.27;100.00
61119;BME280;51448;51.660;5.824;2023-03-11T02:57:30;100674.50;;;0.27;100.00
61119;BME280;51448;51.660;5.824;2023-03-11T02:59:58;100677.09;;;0.27;100.00
61119;BME280;51448;51.660;5.824;2023-03-11T03:02:28;100673.63;;;0.26;100.00
61119;BME280;51448;51.660;5.824;2023-03-11T03:04:56;100667.59;;;0.26;100.00
61119;BME280;51448;51.660;5.824;2023-03-11T03:07:23;100669.34;;;0.27;100.00
61119;BME280;51448;51.660;5.824;2023-03-11T03:09:51;100676.22;;;0.26;100.00
61119;BME280;51448;51.660;5.824;2023-03-11T03:12:19;100672.78;;;0.27;100.00
61119;BME280;51448;51.660;5.824;2023-03-11T03:14:47;100675.38;;;0.27;100.00
61119;BME280;51448;51.660;5.824;2023-03-11T03:17:16;100667.63;;;0.27;100.00
61119;BME280;51448;51.660;5.824;2023-03-11T03:19:46;100664.16;;;0.27;100.00
61119;BME280;51448;51.660;5.824;2023-03-11T03:22:14;100680.53;;;0.27;100.00
61119;BME280;51448;51.660;5.824;2023-03-11T03:24:43;100687.44;;;0.28;100.00
61119;BME280;51448;51.660;5.824;2023-03-11T03:27:11;100688.31;;;0.27;100.00
61119;BME280;51448;51.660;5.824;2023-03-11T03:29:39;100701.25;;;0.27;100.00
61119;BME280;51448;51.660;5.824;2023-03-11T03:32:07;100705.56;;;0.27;100.00
61119;BME280;51448;51.660;5.824;2023-03-11T03:34:35;100706.41;;;0.27;100.00
61119;BME280;51448;51.660;5.824;2023-03-11T03:37:03;100713.31;;;0.27;100.00
61119;BME280;51448;51.660;5.824;2023-03-11T03:39:31;100728.84;;;0.28;100.00
61119;BME280;51448;51.660;5.824;2023-03-11T03:42:00;100727.97;;;0.28;100.00
61119;BME280;51448;51.660;5.824;2023-03-11T03:44:30;100727.97;;;0.28;100.00
61119;BME280;51448;51.660;5.824;2023-03-11T03:46:58;100728.00;;;0.29;100.00
61119;BME280;51448;51.660;5.824;2023-03-11T03:49:26;100735.75;;;0.29;100.00
61119;BME280;51448;51.660;5.824;2023-03-11T03:51:55;100736.63;;;0.30;100.00
61119;BME280;51448;51.660;5.824;2023-03-11T03:54:29;100745.25;;;0.29;100.00
61119;BME280;51448;51.660;5.824;2023-03-11T03:56:59;100737.47;;;0.30;100.00
61119;BME280;51448;51.660;5.824;2023-03-11T03:59:30;100740.06;;;0.29;100.00
61119;BME280;51448;51.660;5.824;2023-03-11T04:01:59;100740.94;;;0.29;100.00
61119;BME280;51448;51.660;5.824;2023-03-11T04:04:29;100740.94;;;0.29;100.00
61119;BME280;51448;51.660;5.824;2023-03-11T04:06:58;100739.22;;;0.30;100.00
61119;BME280;51448;51.660;5.824;2023-03-11T04:09:25;100743.53;;;0.31;100.00
61119;BME280;51448;51.660;5.824;2023-03-11T04:11:54;100742.66;;;0.30;100.00
61119;BME280;51448;51.660;5.824;2023-03-11T04:14:22;100756.47;;;0.29;100.00
61119;BME280;51448;51.660;5.824;2023-03-11T04:16:54;100753.84;;;0.28;100.00
61119;BME280;51448;51.660;5.824;2023-03-11T04:19:22;100746.94;;;0.27;100.00
61119;BME280;51448;51.660;5.824;2023-03-11T04:21:50;100755.50;;;0.24;100.00
61119;BME280;51448;51.660;5.824;2023-03-11T04:24:20;100752.94;;;0.23;100.00
61119;BME280;51448;51.660;5.824;2023-03-11T04:26:48;100758.06;;;0.21;100.00
61119;BME280;51448;51.660;5.824;2023-03-11T04:29:17;100769.25;;;0.20;100.00
61119;BME280;51448;51.660;5.824;2023-03-11T04:31:48;100765.66;;;0.09;100.00
61119;BME280;51448;51.660;5.824;2023-03-11T04:34:16;100759.59;;;0.05;100.00
61119;BME280;51448;51.660;5.824;2023-03-11T04:36:44;100767.34;;;0.05;100.00
61119;BME280;51448;51.660;5.824;2023-03-11T04:39:14;100771.63;;;0.03;100.00
61119;BME280;51448;51.660;5.824;2023-03-11T04:41:43;100769.00;;;0.00;100.00
61119;BME280;51448;51.660;5.824;2023-03-11T04:44:15;100768.94;;;-0.03;100.00
61119;BME280;51448;51.660;5.824;2023-03-11T04:46:44;100762.84;;;-0.07;100.00
61119;BME280;51448;51.660;5.824;2023-03-11T04:49:12;100761.97;;;-0.09;100.00
61119;BME280;51448;51.660;5.824;2023-03-11T04:51:40;100763.66;;;-0.11;100.00
61119;BME280;51448;51.660;5.824;2023-03-11T04:54:09;100766.22;;;-0.14;100.00
61119;BME280;51448;51.660;5.824;2023-03-11T04:56:37;100761.00;;;-0.17;100.00
61119;BME280;51448;51.660;5.824;2023-03-11T04:59:06;100766.13;;;-0.20;100.00
61119;BME280;51448;51.660;5.824;2023-03-11T05:01:36;100771.28;;;-0.22;100.00
61119;BME280;51448;51.660;5.824;2023-03-11T05:04:06;100769.50;;;-0.24;100.00
61119;BME280;51448;51.660;5.824;2023-03-11T05:06:35;100770.34;;;-0.27;100.00
61119;BME280;51448;51.660;5.824;2023-03-11T05:09:04;100778.97;;;-0.26;100.00
61119;BME280;51448;51.660;5.824;2023-03-11T05:11:35;100772.91;;;-0.28;100.00
61119;BME280;51448;51.660;5.824;2023-03-11T05:14:03;100772.00;;;-0.30;100.00
61119;BME280;51448;51.660;5.824;2023-03-11T05:16:31;100771.13;;;-0.32;100.00
61119;BME280;51448;51.660;5.824;2023-03-11T05:18:59;100774.53;;;-0.33;100.00
61119;BME280;51448;51.660;5.824;2023-03-11T05:21:26;100778.81;;;-0.35;100.00
61119;BME280;51448;51.660;5.824;2023-03-11T05:23:54;100789.13;;;-0.37;100.00
61119;BME280;51448;51.660;5.824;2023-03-11T05:26:22;100792.53;;;-0.39;100.00
61119;BME280;51448;51.660;5.824;2023-03-11T05:28:50;100791.63;;;-0.43;100.00
61119;BME280;51448;51.660;5.824;2023-03-11T05:31:17;100795.91;;;-0.44;100.00
61119;BME280;51448;51.660;5.824;2023-03-11T05:33:45;100796.75;;;-0.45;100.00
61119;BME280;51448;51.660;5.824;2023-03-11T05:36:13;100799.31;;;-0.46;100.00
61119;BME280;51448;51.660;5.824;2023-03-11T05:38:43;100795.88;;;-0.47;100.00
61119;BME280;51448;51.660;5.824;2023-03-11T05:41:13;100794.13;;;-0.48;100.00
61119;BME280;51448;51.660;5.824;2023-03-11T05:43:42;100795.84;;;-0.48;100.00
61119;BME280;51448;51.660;5.824;2023-03-11T05:46:10;100799.28;;;-0.49;100.00
61119;BME280;51448;51.660;5.824;2023-03-11T05:48:39;100798.38;;;-0.50;100.00
61119;BME280;51448;51.660;5.824;2023-03-11T05:51:10;100812.19;;;-0.49;100.00
61119;BME280;51448;51.660;5.824;2023-03-11T05:53:45;100807.00;;;-0.51;100.00
61119;BME280;51448;51.660;5.824;2023-03-11T05:56:21;100819.88;;;-0.52;100.00
61119;BME280;51448;51.660;5.824;2023-03-11T05:58:50;100822.44;;;-0.54;100.00
61119;BME280;51448;51.660;5.824;2023-03-11T06:01:19;100817.22;;;-0.57;100.00
61119;BME280;51448;51.660;5.824;2023-03-11T06:03:47;100824.13;;;-0.56;100.00
61119;BME280;51448;51.660;5.824;2023-03-11T06:06:15;100830.97;;;-0.58;100.00
61119;BME280;51448;51.660;5.824;2023-03-11T06:08:44;100829.25;;;-0.59;100.00
61119;BME280;51448;51.660;5.824;2023-03-11T06:11:17;100842.13;;;-0.61;100.00
61119;BME280;51448;51.660;5.824;2023-03-11T06:13:47;100840.41;;;-0.62;100.00
61119;BME280;51448;51.660;5.824;2023-03-11T06:16:14;100843.78;;;-0.64;100.00
61119;BME280;51448;51.660;5.824;2023-03-11T06:18:42;100849.84;;;-0.64;100.00
61119;BME280;51448;51.660;5.824;2023-03-11T06:21:15;100844.69;;;-0.64;100.00
61119;BME280;51448;51.660;5.824;2023-03-11T06:23:46;100849.81;;;-0.65;100.00
61119;BME280;51448;51.660;5.824;2023-03-11T06:26:17;100854.13;;;-0.66;100.00
61119;BME280;51448;51.660;5.824;2023-03-11T06:28:48;100854.91;;;-0.68;100.00
61119;BME280;51448;51.660;5.824;2023-03-11T06:31:26;100855.78;;;-0.68;100.00
61119;BME280;51448;51.660;5.824;2023-03-11T06:34:00;100858.34;;;-0.69;100.00
61119;BME280;51448;51.660;5.824;2023-03-11T06:36:27;100860.94;;;-0.69;100.00
61119;BME280;51448;51.660;5.824;2023-03-11T06:38:55;100870.41;;;-0.68;100.00
61119;BME280;51448;51.660;5.824;2023-03-11T06:41:25;100869.53;;;-0.69;100.00
61119;BME280;51448;51.660;5.824;2023-03-11T06:43:53;100869.56;;;-0.67;100.00
61119;BME280;51448;51.660;5.824;2023-03-11T06:46:21;100873.88;;;-0.66;100.00
61119;BME280;51448;51.660;5.824;2023-03-11T06:48:53;100877.31;;;-0.67;100.00
61119;BME280;51448;51.660;5.824;2023-03-11T06:51:24;100880.81;;;-0.65;100.00
61119;BME280;51448;51.660;5.824;2023-03-11T06:53:52;100885.13;;;-0.64;100.00
61119;BME280;51448;51.660;5.824;2023-03-11T06:56:22;100894.72;;;-0.57;100.00
61119;BME280;51448;51.660;5.824;2023-03-11T06:58:55;100905.19;;;-0.51;100.00
61119;BME280;51448;51.660;5.824;2023-03-11T07:01:27;100902.75;;;-0.42;100.00
61119;BME280;51448;51.660;5.824;2023-03-11T07:03:56;100910.78;;;-0.26;100.00
61119;BME280;51448;51.660;5.824;2023-03-11T07:06:27;100912.81;;;-0.08;100.00
61119;BME280;51448;51.660;5.824;2023-03-11T07:09:03;100919.19;;;0.12;100.00
61119;BME280;51448;51.660;5.824;2023-03-11T07:11:33;100910.81;;;0.29;100.00
61119;BME280;51448;51.660;5.824;2023-03-11T07:14:11;100918.81;;;0.46;100.00
61119;BME280;51448;51.660;5.824;2023-03-11T07:16:42;100919.88;;;0.58;100.00
61119;BME280;51448;51.660;5.824;2023-03-11T07:19:20;100927.81;;;0.71;100.00
61119;BME280;51448;51.660;5.824;2023-03-11T07:21:53;100917.63;;;0.85;100.00
61119;BME280;51448;51.660;5.824;2023-03-11T07:24:22;100933.34;;;0.98;100.00
61119;BME280;51448;51.660;5.824;2023-03-11T07:26:49;100927.50;;;1.13;100.00
61119;BME280;51448;51.660;5.824;2023-03-11T07:29:17;100935.44;;;1.29;100.00
61119;BME280;51448;51.660;5.824;2023-03-11T07:31:46;100948.53;;;1.39;100.00
61119;BME280;51448;51.660;5.824;2023-03-11T07:34:14;100942.56;;;1.48;100.00
61119;BME280;51448;51.660;5.824;2023-03-11T07:36:42;100951.31;;;1.58;100.00
61119;BME280;51448;51.660;5.824;2023-03-11T07:39:13;100950.56;;;1.68;99.75
61119;BME280;51448;51.660;5.824;2023-03-11T07:41:44;100950.66;;;1.79;99.93
61119;BME280;51448;51.660;5.824;2023-03-11T07:44:13;100958.53;;;1.90;99.30
61119;BME280;51448;51.660;5.824;2023-03-11T07:46:42;100958.63;;;1.97;98.78
61119;BME280;51448;51.660;5.824;2023-03-11T07:49:10;100964.75;;;2.06;98.45
61119;BME280;51448;51.660;5.824;2023-03-11T07:51:39;100953.59;;;2.16;98.16
61119;BME280;51448;51.660;5.824;2023-03-11T07:54:10;100954.53;;;2.24;98.42
61119;BME280;51448;51.660;5.824;2023-03-11T07:56:39;100958.94;;;2.34;98.05
61119;BME280;51448;51.660;5.824;2023-03-11T07:59:06;100965.88;;;2.41;98.03
61119;BME280;51448;51.660;5.824;2023-03-11T08:01:34;100965.91;;;2.43;97.25
61119;BME280;51448;51.660;5.824;2023-03-11T08:04:04;100972.00;;;2.47;97.19
61119;BME280;51448;51.660;5.824;2023-03-11T08:06:35;100977.22;;;2.48;97.25
61119;BME280;51448;51.660;5.824;2023-03-11T08:09:06;100983.25;;;2.49;96.34
61119;BME280;51448;51.660;5.824;2023-03-11T08:11:35;100977.16;;;2.42;97.23
61119;BME280;51448;51.660;5.824;2023-03-11T08:14:03;100975.44;;;2.44;97.11
61119;BME280;51448;51.660;5.824;2023-03-11T08:16:31;100980.66;;;2.49;96.64
61119;BME280;51448;51.660;5.824;2023-03-11T08:18:59;100985.88;;;2.49;96.35
61119;BME280;51448;51.660;5.824;2023-03-11T08:21:29;100985.88;;;2.50;96.16
61119;BME280;51448;51.660;5.824;2023-03-11T08:23:59;100988.47;;;2.52;96.23
61119;BME280;51448;51.660;5.824;2023-03-11T08:26:29;100991.97;;;2.55;95.68
61119;BME280;51448;51.660;5.824;2023-03-11T08:28:58;100993.72;;;2.56;95.82
61119;BME280;51448;51.660;5.824;2023-03-11T08:31:29;100996.34;;;2.61;95.22
61119;BME280;51448;51.660;5.824;2023-03-11T08:34:00;101003.31;;;2.67;95.21
61119;BME280;51448;51.660;5.824;2023-03-11T08:36:31;100992.94;;;2.71;94.59
61119;BME280;51448;51.660;5.824;2023-03-11T08:39:01;100988.63;;;2.73;93.54
61119;BME280;51448;51.660;5.824;2023-03-11T08:41:29;100988.66;;;2.78;94.14
61119;BME280;51448;51.660;5.824;2023-03-11T08:43:56;100988.69;;;2.82;92.99
61119;BME280;51448;51.660;5.824;2023-03-11T08:46:28;100989.59;;;2.89;92.60
61119;BME280;51448;51.660;5.824;2023-03-11T08:48:59;100994.81;;;2.97;91.90
61119;BME280;51448;51.660;5.824;2023-03-11T08:51:29;100996.63;;;3.06;92.12
61119;BME280;51448;51.660;5.824;2023-03-11T08:53:59;101002.72;;;3.15;91.57
61119;BME280;51448;51.660;5.824;2023-03-11T08:56:27;101002.78;;;3.25;91.96
61119;BME280;51448;51.660;5.824;2023-03-11T08:58:56;101001.97;;;3.35;92.12
61119;BME280;51448;51.660;5.824;2023-03-11T09:01:23;101018.47;;;3.48;91.19
61119;BME280;51448;51.660;5.824;2023-03-11T09:03:51;101022.84;;;3.58;90.40
61119;BME280;51448;51.660;5.824;2023-03-11T09:06:20;101028.06;;;3.69;89.61
61119;BME280;51448;51.660;5.824;2023-03-11T09:08:48;101026.38;;;3.74;89.10
61119;BME280;51448;51.660;5.824;2023-03-11T09:11:16;101027.25;;;3.82;89.26
61119;BME280;51448;51.660;5.824;2023-03-11T09:13:45;101025.56;;;3.90;88.71
61119;BME280;51448;51.660;5.824;2023-03-11T09:16:15;101025.56;;;3.98;88.95
61119;BME280;51448;51.660;5.824;2023-03-11T09:18:45;101020.38;;;4.02;88.54
61119;BME280;51448;51.660;5.824;2023-03-11T09:21:12;101029.06;;;4.11;88.34
61119;BME280;51448;51.660;5.824;2023-03-11T09:23:41;101024.72;;;4.16;88.45
61119;BME280;51448;51.660;5.824;2023-03-11T09:26:11;101030.81;;;4.21;88.13
61119;BME280;51448;51.660;5.824;2023-03-11T09:28:40;101032.56;;;4.31;87.85
61119;BME280;51448;51.660;5.824;2023-03-11T09:31:08;101037.78;;;4.39;88.20
61119;BME280;51448;51.660;5.824;2023-03-11T09:33:40;101035.19;;;4.45;86.90
61119;BME280;51448;51.660;5.824;2023-03-11T09:36:17;101030.81;;;4.49;86.90
61119;BME280;51448;51.660;5.824;2023-03-11T09:38:47;101031.72;;;4.55;86.43
61119;BME280;51448;51.660;5.824;2023-03-11T09:41:33;101036.03;;;4.61;85.43
61119;BME280;51448;51.660;5.824;2023-03-11T09:44:44;101034.31;;;4.66;84.79
61119;BME280;51448;51.660;5.824;2023-03-11T09:47:24;101038.66;;;4.70;84.47
61119;BME280;51448;51.660;5.824;2023-03-11T09:50:25;101048.19;;;4.77;84.15
61119;BME280;51448;51.660;5.824;2023-03-11T09:55:58;101053.38;;;4.91;83.55
61119;BME280;51448;51.660;5.824;2023-03-11T10:04:22;101047.28;;;5.01;81.09
61119;BME280;51448;51.660;5.824;2023-03-11T10:06:58;101046.41;;;4.98;80.88
61119;BME280;51448;51.660;5.824;2023-03-11T10:09:34;101042.09;;;4.98;80.71
61119;BME280;51448;51.660;5.824;2023-03-11T10:13:22;101049.03;;;4.96;77.47
61119;BME280;51448;51.660;5.824;2023-03-11T10:15:39;101042.97;;;4.91;79.61
61119;BME280;51448;51.660;5.824;2023-03-11T10:18:21;101036.00;;;4.96;80.25
61119;BME280;51448;51.660;5.824;2023-03-11T10:29:16;101049.91;;;5.03;77.52
61119;BME280;51448;51.660;5.824;2023-03-11T10:32:19;101045.56;;;5.05;75.96
61119;BME280;51448;51.660;5.824;2023-03-11T10:34:59;101058.56;;;5.11;75.09
61119;BME280;51448;51.660;5.824;2023-03-11T10:37:42;101053.34;;;5.19;74.21
61119;BME280;51448;51.660;5.824;2023-03-11T10:40:28;101057.63;;;5.31;72.27
61119;BME280;51448;51.660;5.824;2023-03-11T10:43:05;101053.31;;;5.30;72.15
61119;BME280;51448;51.660;5.824;2023-03-11T10:45:40;101055.03;;;5.32;71.14
61119;BME280;51448;51.660;5.824;2023-03-11T10:48:13;101056.78;;;5.33;71.96
61119;BME280;51448;51.660;5.824;2023-03-11T10:51:02;101061.09;;;5.40;72.52
61119;BME280;51448;51.660;5.824;2023-03-11T10:53:59;101066.28;;;5.56;72.83
61119;BME280;51448;51.660;5.824;2023-03-11T10:56:36;101067.94;;;5.68;69.78
61119;BME280;51448;51.660;5.824;2023-03-11T11:02:40;101058.41;;;5.68;68.99
61119;BME280;51448;51.660;5.824;2023-03-11T11:07:48;101053.94;;;5.85;71.00
61119;BME280;51448;51.660;5.824;2023-03-11T11:10:24;101055.63;;;6.00;71.67
61119;BME280;51448;51.660;5.824;2023-03-11T11:15:51;101060.75;;;6.23;70.34
61119;BME280;51448;51.660;5.824;2023-03-11T11:18:27;101050.25;;;6.27;70.27
61119;BME280;51448;51.660;5.824;2023-03-11T11:23:48;101059.81;;;6.29;68.57
61119;BME280;51448;51.660;5.824;2023-03-11T11:26:22;101063.28;;;6.31;69.05
61119;BME280;51448;51.660;5.824;2023-03-11T11:31:39;101057.19;;;6.29;68.82
61119;BME280;51448;51.660;5.824;2023-03-11T11:34:29;101056.34;;;6.30;68.79
61119;BME280;51448;51.660;5.824;2023-03-11T11:37:01;101060.66;;;6.31;70.02
61119;BME280;51448;51.660;5.824;2023-03-11T11:39:39;101059.78;;;6.35;70.20
61119;BME280;51448;51.660;5.824;2023-03-11T11:42:19;101066.75;;;6.36;70.33
61119;BME280;51448;51.660;5.824;2023-03-11T11:44:51;101053.69;;;6.35;69.93
61119;BME280;51448;51.660;5.824;2023-03-11T11:47:33;101062.41;;;6.32;68.92
61119;BME280;51448;51.660;5.824;2023-03-11T11:50:05;101057.25;;;6.28;69.21
61119;BME280;51448;51.660;5.824;2023-03-11T11:52:51;101058.97;;;6.27;69.79
61119;BME280;51448;51.660;5.824;2023-03-11T11:55:26;101057.19;;;6.32;69.63
61119;BME280;51448;51.660;5.824;2023-03-11T11:57:56;101056.31;;;6.35;69.64
61119;BME280;51448;51.660;5.824;2023-03-11T12:00:33;101057.09;;;6.44;69.20
61119;BME280;51448;51.660;5.824;2023-03-11T12:03:35;101061.38;;;6.53;69.08
61119;BME280;51448;51.660;5.824;2023-03-11T12:11:48;101061.28;;;6.67;68.37
61119;BME280;51448;51.660;5.824;2023-03-11T12:17:02;101062.03;;;6.81;66.58
61119;BME280;51448;51.660;5.824;2023-03-11T12:19:44;101060.28;;;6.83;66.68
61119;BME280;51448;51.660;5.824;2023-03-11T12:23:31;101061.91;;;6.94;66.98
61119;BME280;51448;51.660;5.824;2023-03-11T12:28:54;101069.72;;;7.00;66.63
61119;BME280;51448;51.660;5.824;2023-03-11T12:31:36;101061.81;;;7.03;65.71
61119;BME280;51448;51.660;5.824;2023-03-11T12:34:10;101066.19;;;7.01;65.27
61119;BME280;51448;51.660;5.824;2023-03-11T12:36:43;101058.34;;;7.02;65.84
61119;BME280;51448;51.660;5.824;2023-03-11T12:39:41;101059.19;;;7.06;65.47
61119;BME280;51448;51.660;5.824;2023-03-11T12:42:22;101062.59;;;7.13;65.04
61119;BME280;51448;51.660;5.824;2023-03-11T12:44:51;101052.97;;;7.16;65.04
61119;BME280;51448;51.660;5.824;2023-03-11T12:47:24;101044.16;;;7.25;65.00
61119;BME280;51448;51.660;5.824;2023-03-11T12:53:15;101049.13;;;7.48;66.06
61119;BME280;51448;51.660;5.824;2023-03-11T12:59:10;101041.09;;;7.63;62.61
61119;BME280;51448;51.660;5.824;2023-03-11T13:02:28;101041.09;;;7.63;64.27
61119;BME280;51448;51.660;5.824;2023-03-11T13:05:25;101036.63;;;7.72;65.26
61119;BME280;51448;51.660;5.824;2023-03-11T13:08:18;101040.81;;;7.85;64.86
61119;BME280;51448;51.660;5.824;2023-03-11T13:10:49;101028.44;;;7.96;65.30
61119;BME280;51448;51.660;5.824;2023-03-11T13:13:39;101026.53;;;8.07;64.84
61119;BME280;51448;51.660;5.824;2023-03-11T13:18:42;101030.03;;;8.06;61.48
61119;BME280;51448;51.660;5.824;2023-03-11T13:30:08;101023.88;;;8.09;60.71
61119;BME280;51448;51.660;5.824;2023-03-11T13:38:37;101026.22;;;8.29;59.81
61119;BME280;51448;51.660;5.824;2023-03-11T13:41:31;101023.66;;;8.24;59.52
61119;BME280;51448;51.660;5.824;2023-03-11T13:46:57;101031.34;;;8.35;59.61
61119;BME280;51448;51.660;5.824;2023-03-11T13:49:37;101028.72;;;8.37;59.87
61119;BME280;51448;51.660;5.824;2023-03-11T13:52:35;101040.78;;;8.49;60.57
61119;BME280;51448;51.660;5.824;2023-03-11T13:55:29;101046.72;;;8.60;60.22
61119;BME280;51448;51.660;5.824;2023-03-11T13:58:13;101049.25;;;8.66;59.85
61119;BME280;51448;51.660;5.824;2023-03-11T14:00:51;101043.00;;;8.73;59.29
61119;BME280;51448;51.660;5.824;2023-03-11T14:03:26;101030.78;;;8.72;57.61
61119;BME280;51448;51.660;5.824;2023-03-11T14:06:10;101042.31;;;8.62;57.69
61119;BME280;51448;51.660;5.824;2023-03-11T14:08:54;101043.25;;;8.59;57.04
61119;BME280;51448;51.660;5.824;2023-03-11T14:11:26;101038.84;;;8.60;58.22
61119;BME280;51448;51.660;5.824;2023-03-11T14:13:55;101039.59;;;8.68;58.22
61119;BME280;51448;51.660;5.824;2023-03-11T14:16:30;101043.78;;;8.78;58.42
61119;BME280;51448;51.660;5.824;2023-03-11T14:19:22;101047.16;;;8.85;56.98
61119;BME280;51448;51.660;5.824;2023-03-11T14:21:50;101041.06;;;8.84;57.28
61119;BME280;51448;51.660;5.824;2023-03-11T14:26:54;101058.50;;;8.85;56.15
61119;BME280;51448;51.660;5.824;2023-03-11T14:29:34;101065.53;;;8.83;56.08
61119;BME280;51448;51.660;5.824;2023-03-11T14:32:26;101057.78;;;8.77;55.61
61119;BME280;51448;51.660;5.824;2023-03-11T14:34:59;101057.84;;;8.76;55.68
61119;BME280;51448;51.660;5.824;2023-03-11T14:37:34;101052.53;;;8.77;54.91
61119;BME280;51448;51.660;5.824;2023-03-11T14:43:00;101055.97;;;8.82;55.01
61119;BME280;51448;51.660;5.824;2023-03-11T14:45:32;101057.69;;;8.83;55.90